Aérodrome :
LOGIN :

S'inscrire | Disclaimer

   EN    FR    IT 

 










Légende :    VFR   VFR Marginal   IFR   IFR Intensif   IFR Très Intensif
Visi : 
Plafond : 
>= 8 km
>= 3000ft
5 à 8 km
1000 à 3000 ft
1500m à 5 km
500 à 1000 ft
800 à 1500m
200 à 500 ft
< 800m
< 200 ft
Symboles :   Orages  Brouillard  Fortes neiges  Fortes précipitations  Vent > 20 kt
SIGMETs :   Divers  Orages  Givrage  Turbulence  Onde Orograph.  Cendres Volcan.






- Altitude de l'aérodrome : 333 ft


LIPL - Ghedi Brescia (Mil)

DERNIER METAR :
  • 281255Z 10001KT CAVOK 13/M07 Q1017 RMK SKC VIS MIN 9999 WIND THR31 34003KT WIND THR13 07003KT BLU

METARs EXPIRÉS :
  • 281155Z 26004KT CAVOK 12/M06 Q1017 RMK SKC VIS MIN 9999 WIND THR31 31002KT WIND THR13 27006KT BLU
  • 281055Z 28006KT CAVOK 12/M06 Q1016 RMK SKC VIS MIN 9999 WIND THR31 28009KT WIND THR13 27006KT BLU

TAF TAF LIPL
Valide du 28 à 12h jusqu'au 28 à 21h UTC


281100Z 2812/2821 27007KT CAVOK



MET'MAP, la Météo Aéronautique d'un coup d'oeil ! - Copyright ORBIFLY Décembre 2007 - Disclaimer

ORBIFLY MET'MAP TEAM :

Programmation & Développement : Alexandra Zaïnal
Sur une idée originale de : Baudouin d'Aumeries
Assistance à la programmation : Marc-Olivier Méhu
Soutien technique & logistique : Manuel Goepfert

Contact : metmap@orbifly.com




SOURCES & CREDITS :

   NOAA